createdAt,value
2022-09-17T00:01:33.135Z,97840.88
2022-09-17T00:04:18.412Z,97842.41
2022-09-17T00:07:04.387Z,97841.31
2022-09-17T00:09:49.562Z,97844.41
2022-09-17T00:12:34.847Z,97844.41
2022-09-17T00:15:20.219Z,97842.88
2022-09-17T00:18:05.550Z,97844.09
2022-09-17T00:20:51.009Z,97848.88
2022-09-17T00:23:36.231Z,97851.63
2022-09-17T00:26:22.195Z,97856.41
2022-09-17T00:29:07.629Z,97848.53
2022-09-17T00:31:52.796Z,97852.06
2022-09-17T00:34:38.073Z,97851.72
2022-09-17T00:37:23.357Z,97855.72
2022-09-17T00:40:09.371Z,97851.72
2022-09-17T00:42:54.922Z,97858.50
2022-09-17T00:45:40.352Z,97851.44
2022-09-17T00:48:25.415Z,97859.75
2022-09-17T00:51:14.247Z,97847.09
2022-09-17T00:54:01.874Z,97854.19
2022-09-17T00:56:48.317Z,97840.00
2022-09-17T00:59:33.686Z,97845.56
2022-09-17T01:02:19.988Z,97840.78
2022-09-17T01:05:06.611Z,97839.22
2022-09-17T01:08:01.081Z,97831.38
2022-09-17T01:11:15.860Z,97836.91
2022-09-17T01:14:04.051Z,97824.28
2022-09-17T01:17:00.656Z,97829.81
2022-09-17T01:20:09.628Z,97831.38
2022-09-17T01:23:13.392Z,97837.34
2022-09-17T01:26:20.215Z,97833.81
2022-09-17T01:29:08.659Z,97825.50
2022-09-17T01:32:11.043Z,97830.28
2022-09-17T01:35:09.306Z,97836.59
2022-09-17T01:38:13.575Z,97844.13
2022-09-17T01:41:10.802Z,97846.56
2022-09-17T01:44:10.500Z,97841.00
2022-09-17T01:47:06.861Z,97844.56
2022-09-17T01:49:57.287Z,97838.69
2022-09-17T01:52:45.370Z,97841.00
2022-09-17T01:55:37.293Z,97839.44
2022-09-17T01:58:28.302Z,97840.69
2022-09-17T02:01:20.111Z,97835.56
2022-09-17T02:04:11.288Z,97840.69
2022-09-17T02:07:03.246Z,97843.00
2022-09-17T02:10:06.709Z,97846.56
2022-09-17T02:13:08.190Z,97844.22
2022-09-17T02:16:10.863Z,97848.19
2022-09-17T02:19:10.663Z,97843.88
2022-09-17T02:22:50.188Z,97841.88
2022-09-17T02:25:50.532Z,97842.34
2022-09-17T02:28:48.105Z,97841.13
2022-09-17T02:31:33.685Z,97836.34
2022-09-17T02:34:20.270Z,97838.34
2022-09-17T02:37:06.802Z,97838.34
2022-09-17T02:39:52.556Z,97839.13
2022-09-17T02:42:50.749Z,97835.56
2022-09-17T02:46:08.196Z,97839.59
2022-09-17T02:49:12.496Z,97835.25
2022-09-17T02:52:22.486Z,97829.38
2022-09-17T02:55:07.567Z,97832.13
2022-09-17T02:58:10.273Z,97834.56
2022-09-17T03:01:01.958Z,97830.94
2022-09-17T03:03:51.178Z,97831.81
2022-09-17T03:06:36.490Z,97825.50
2022-09-17T03:09:21.911Z,97837.00
2022-09-17T03:12:07.270Z,97832.72
2022-09-17T03:14:52.480Z,97834.72
2022-09-17T03:17:38.013Z,97837.81
2022-09-17T03:20:23.307Z,97831.94
2022-09-17T03:23:08.707Z,97843.78
2022-09-17T03:25:55.202Z,97845.31
2022-09-17T03:28:40.253Z,97857.19
2022-09-17T03:31:25.449Z,97853.63
2022-09-17T03:34:10.542Z,97850.84
2022-09-17T03:36:55.930Z,97847.75
2022-09-17T03:39:41.016Z,97857.19
2022-09-17T03:42:26.320Z,97861.94
2022-09-17T03:45:11.728Z,97853.28
2022-09-17T03:47:57.288Z,97858.06
2022-09-17T03:50:43.781Z,97845.78
2022-09-17T03:53:29.237Z,97851.31
2022-09-17T03:56:14.648Z,97858.81
2022-09-17T03:59:01.204Z,97858.81
2022-09-17T04:01:46.843Z,97856.50
2022-09-17T04:04:32.559Z,97862.50
2022-09-17T04:07:17.703Z,97868.03
2022-09-17T04:10:04.976Z,97863.72
2022-09-17T04:12:50.192Z,97865.69
2022-09-17T04:15:35.459Z,97867.69
2022-09-17T04:18:20.701Z,97875.13
2022-09-17T04:21:06.453Z,97869.25
2022-09-17T04:23:51.748Z,97869.69
2022-09-17T04:26:37.244Z,97860.16
2022-09-17T04:29:22.411Z,97869.59
2022-09-17T04:32:07.992Z,97867.59
2022-09-17T04:34:53.340Z,97861.28
2022-09-17T04:37:39.499Z,97855.75
2022-09-17T04:40:26.231Z,97864.06
2022-09-17T04:43:11.690Z,97869.59
2022-09-17T04:45:56.974Z,97864.50
2022-09-17T04:48:42.416Z,97860.94
2022-09-17T04:51:27.989Z,97866.03
2022-09-17T04:54:14.663Z,97864.50
2022-09-17T04:57:00.965Z,97870.47
2022-09-17T04:59:46.429Z,97872.03
2022-09-17T05:02:32.207Z,97860.94
2022-09-17T05:05:18.879Z,97869.25
2022-09-17T05:08:04.434Z,97864.91
2022-09-17T05:10:51.508Z,97866.81
2022-09-17T05:13:37.005Z,97869.81
2022-09-17T05:16:22.658Z,97867.81
2022-09-17T05:19:08.338Z,97869.25
2022-09-17T05:21:53.826Z,97863.69
2022-09-17T05:24:39.778Z,97871.16
2022-09-17T05:27:25.117Z,97876.56
2022-09-17T05:30:11.977Z,97871.69
2022-09-17T05:33:05.813Z,97869.25
2022-09-17T05:35:51.593Z,97871.13
2022-09-17T05:38:37.579Z,97871.44
2022-09-17T05:41:23.099Z,97880.09
2022-09-17T05:44:08.295Z,97878.91
2022-09-17T05:46:54.395Z,97879.56
2022-09-17T05:49:40.354Z,97877.91
2022-09-17T05:52:29.659Z,97882.97
2022-09-17T05:55:14.827Z,97885.75
2022-09-17T05:58:00.741Z,97884.53
2022-09-17T06:00:47.551Z,97885.31
2022-09-17T06:03:33.479Z,97879.31
2022-09-17T06:06:18.908Z,97878.44
2022-09-17T06:09:06.003Z,97889.84
2022-09-17T06:11:51.281Z,97888.31
2022-09-17T06:14:36.587Z,97885.06
2022-09-17T06:17:22.379Z,97884.63
2022-09-17T06:20:07.786Z,97890.63
2022-09-17T06:22:57.608Z,97890.50
2022-09-17T06:25:43.140Z,97884.06
2022-09-17T06:28:29.023Z,97890.19
2022-09-17T06:31:14.479Z,97884.97
2022-09-17T06:34:01.725Z,97888.50
2022-09-17T06:36:48.923Z,97888.50
2022-09-17T06:39:34.454Z,97881.88
2022-09-17T06:42:19.861Z,97878.31
2022-09-17T06:45:08.714Z,97883.22
2022-09-17T06:47:56.388Z,97880.06
2022-09-17T06:50:42.878Z,97878.09
2022-09-17T06:53:30.625Z,97883.19
2022-09-17T06:56:16.201Z,97882.75
2022-09-17T06:59:02.185Z,97877.19
2022-09-17T07:01:48.120Z,97883.97
2022-09-17T07:04:33.497Z,97884.28
2022-09-17T07:07:18.821Z,97890.16
2022-09-17T07:10:04.469Z,97889.28
2022-09-17T07:12:50.205Z,97898.81
2022-09-17T07:15:35.757Z,97900.38
2022-09-17T07:18:22.435Z,97899.59
2022-09-17T07:21:08.102Z,97897.59
2022-09-17T07:23:53.492Z,97888.69
2022-09-17T07:26:38.653Z,97898.88
2022-09-17T07:29:26.346Z,97902.47
2022-09-17T07:32:11.579Z,97906.75
2022-09-17T07:34:57.202Z,97902.00
2022-09-17T07:37:42.642Z,97915.41
2022-09-17T07:40:27.928Z,97906.66
2022-09-17T07:43:13.007Z,97919.63
2022-09-17T07:46:00.041Z,97923.81
2022-09-17T07:48:46.928Z,97928.69
2022-09-17T07:51:32.685Z,97936.91
2022-09-17T07:54:18.019Z,97945.22
2022-09-17T07:57:04.312Z,97940.78
2022-09-17T07:59:49.667Z,97949.53
2022-09-17T08:02:35.158Z,97956.31
2022-09-17T08:05:21.557Z,97961.88
2022-09-17T08:08:06.869Z,97971.28
2022-09-17T08:10:52.275Z,97971.72
2022-09-17T08:13:37.849Z,97976.84
2022-09-17T08:16:24.965Z,97968.94
2022-09-17T08:19:11.017Z,97970.53
2022-09-17T08:21:56.753Z,97970.53
2022-09-17T08:24:42.569Z,97970.19
2022-09-17T08:27:29.734Z,97977.28
2022-09-17T08:30:15.323Z,97979.16
2022-09-17T08:33:00.654Z,97985.06
2022-09-17T08:35:53.336Z,97991.03
2022-09-17T08:38:39.938Z,97993.38
2022-09-17T08:41:40.574Z,97994.47
2022-09-17T08:45:00.477Z,97994.81
2022-09-17T08:47:48.632Z,97995.25
2022-09-17T08:50:39.213Z,97986.16
2022-09-17T08:53:39.062Z,97996.78
2022-09-17T08:56:27.658Z,98001.88
2022-09-17T09:00:03.803Z,98005.75
2022-09-17T09:03:31.691Z,97993.66
2022-09-17T09:06:19.731Z,98006.75
2022-09-17T09:09:15.868Z,97987.66
2022-09-17T09:12:05.099Z,97987.84
2022-09-17T09:15:01.329Z,97993.41
2022-09-17T09:17:49.996Z,97978.22
2022-09-17T09:20:57.622Z,97979.75
2022-09-17T09:24:16.757Z,97979.66
2022-09-17T09:27:05.204Z,97989.19
2022-09-17T09:29:53.799Z,97989.94
2022-09-17T09:32:54.106Z,98000.28
2022-09-17T09:35:43.083Z,98001.94
2022-09-17T09:38:34.207Z,98001.28
2022-09-17T09:41:36.807Z,98015.16
2022-09-17T09:44:25.037Z,98017.94
2022-09-17T09:47:22.756Z,98014.84
2022-09-17T09:50:38.418Z,98012.06
2022-09-17T09:54:11.103Z,98010.19
2022-09-17T09:56:58.479Z,98002.44
2022-09-17T09:59:43.687Z,98008.00
2022-09-17T10:02:29.363Z,97999.66
2022-09-17T10:05:14.818Z,98003.66
2022-09-17T10:08:00.664Z,98009.19
2022-09-17T10:10:58.680Z,97999.34
2022-09-17T10:13:44.224Z,98003.31
2022-09-17T10:16:31.276Z,98003.31
2022-09-17T10:19:25.951Z,98001.78
2022-09-17T10:22:30.475Z,98002.53
2022-09-17T10:25:28.851Z,98008.88
2022-09-17T10:28:46.859Z,98039.94
2022-09-17T10:32:15.012Z,98042.81
2022-09-17T10:35:04.544Z,98033.06
2022-09-17T10:37:52.000Z,98027.19
2022-09-17T10:40:37.393Z,98020.44
2022-09-17T10:43:23.662Z,98012.88
2022-09-17T10:46:14.163Z,98008.44
2022-09-17T10:49:23.318Z,98008.78
2022-09-17T10:52:12.161Z,98005.91
2022-09-17T10:55:19.580Z,98007.44
2022-09-17T10:58:07.792Z,98008.88
2022-09-17T11:01:11.946Z,98008.09
2022-09-17T11:04:03.982Z,98001.66
2022-09-17T11:07:15.298Z,97999.97
2022-09-17T11:10:23.720Z,97984.88
2022-09-17T11:13:37.595Z,97990.78
2022-09-17T11:16:22.752Z,97997.41
2022-09-17T11:19:23.571Z,97994.31
2022-09-17T11:22:27.666Z,98003.41
2022-09-17T11:25:34.980Z,97994.75
2022-09-17T11:28:33.977Z,97993.53
2022-09-17T11:31:31.797Z,97994.22
2022-09-17T11:34:29.313Z,97998.53
2022-09-17T11:37:25.012Z,98008.06
2022-09-17T11:40:11.787Z,98013.97
2022-09-17T11:43:08.825Z,98033.38
2022-09-17T11:46:08.694Z,98035.81
2022-09-17T11:49:12.590Z,98044.13
2022-09-17T11:52:07.432Z,98039.47
2022-09-17T11:54:58.614Z,98033.16
2022-09-17T11:57:44.981Z,98032.72
2022-09-17T12:00:36.633Z,98028.25
2022-09-17T12:03:32.355Z,98031.47
2022-09-17T12:06:44.694Z,98018.25
2022-09-17T12:09:36.640Z,98014.72
2022-09-17T12:12:48.293Z,98008.84
2022-09-17T12:15:35.551Z,98018.84
2022-09-17T12:18:47.051Z,98016.72
2022-09-17T12:21:44.633Z,98005.63
2022-09-17T12:24:31.131Z,98013.16
2022-09-17T12:27:28.781Z,98017.84
2022-09-17T12:30:15.174Z,98001.94
2022-09-17T12:33:38.891Z,97999.06
2022-09-17T12:36:50.246Z,97995.38
2022-09-17T12:39:55.910Z,97990.59
2022-09-17T12:42:59.894Z,97985.97
2022-09-17T12:45:54.272Z,97983.63
2022-09-17T12:48:52.941Z,97977.63
2022-09-17T12:51:47.521Z,97974.41
2022-09-17T12:54:57.832Z,97979.19
2022-09-17T12:57:55.732Z,97969.97
2022-09-17T13:01:03.910Z,97970.75
2022-09-17T13:04:33.668Z,97964.41
2022-09-17T13:07:44.223Z,97977.06
2022-09-17T13:10:55.520Z,97970.31
2022-09-17T13:13:53.865Z,97962.84
2022-09-17T13:17:11.992Z,97975.41
2022-09-17T13:20:11.018Z,97990.94
2022-09-17T13:22:58.259Z,97984.19
2022-09-17T13:25:53.154Z,97979.50
2022-09-17T13:28:47.953Z,97979.19
2022-09-17T13:31:39.524Z,97979.50
2022-09-17T13:34:30.529Z,97983.38
2022-09-17T13:37:20.512Z,97970.75
2022-09-17T13:40:33.294Z,97974.97
2022-09-17T13:43:24.050Z,97969.34
2022-09-17T13:46:12.563Z,97964.56
2022-09-17T13:49:02.375Z,97961.69
2022-09-17T13:51:50.647Z,97970.13
2022-09-17T13:54:38.719Z,97962.69
2022-09-17T13:57:25.159Z,97958.34
2022-09-17T14:00:48.774Z,97961.78
2022-09-17T14:03:34.305Z,97952.03
2022-09-17T14:06:21.868Z,97943.88
2022-09-17T14:09:47.139Z,97945.53
2022-09-17T14:12:41.606Z,97948.41
2022-09-17T14:15:36.192Z,97944.88
2022-09-17T14:18:27.640Z,97940.53
2022-09-17T14:21:24.101Z,97936.88
2022-09-17T14:24:32.312Z,97934.81
2022-09-17T14:27:20.637Z,97934.47
2022-09-17T14:30:31.070Z,97935.03
2022-09-17T14:33:32.000Z,97926.16
2022-09-17T14:36:20.532Z,97938.59
2022-09-17T14:39:16.071Z,97929.50
2022-09-17T14:42:01.776Z,97946.13
2022-09-17T14:44:58.806Z,97944.69
2022-09-17T14:47:44.000Z,97938.38
2022-09-17T14:50:29.397Z,97947.59
2022-09-17T14:53:18.178Z,97932.28
2022-09-17T14:56:03.873Z,97932.72
2022-09-17T14:58:52.734Z,97940.72
2022-09-17T15:01:38.056Z,97928.41
2022-09-17T15:04:28.406Z,97926.84
2022-09-17T15:07:13.750Z,97919.00
2022-09-17T15:10:12.613Z,97917.53
2022-09-17T15:12:58.487Z,97914.91
2022-09-17T15:16:00.813Z,97909.56
2022-09-17T15:19:01.633Z,97916.53
2022-09-17T15:21:51.273Z,97913.00
2022-09-17T15:25:02.691Z,97908.53
2022-09-17T15:27:48.592Z,97907.78
2022-09-17T15:30:33.855Z,97909.97
2022-09-17T15:33:19.734Z,97917.09
2022-09-17T15:36:23.447Z,97912.19
2022-09-17T15:39:32.280Z,97920.06
2022-09-17T15:42:21.198Z,97920.06
2022-09-17T15:45:19.729Z,97923.94
2022-09-17T15:48:10.925Z,97923.94
2022-09-17T15:50:59.012Z,97923.81
2022-09-17T15:53:59.274Z,97932.13
2022-09-17T15:56:57.067Z,97926.91
2022-09-17T15:59:42.860Z,97941.78
2022-09-17T16:02:31.679Z,97931.13
2022-09-17T16:05:16.948Z,97933.78
2022-09-17T16:08:20.314Z,97932.09
2022-09-17T16:11:05.611Z,97937.97
2022-09-17T16:13:53.371Z,97930.09
2022-09-17T16:16:38.851Z,97935.66
2022-09-17T16:19:24.016Z,97926.13
2022-09-17T16:22:09.274Z,97928.44
2022-09-17T16:24:55.003Z,97931.19
2022-09-17T16:28:12.364Z,97928.00
2022-09-17T16:30:58.829Z,97928.31
2022-09-17T16:33:44.775Z,97937.41
2022-09-17T16:36:32.171Z,97936.50
2022-09-17T16:39:17.373Z,97933.72
2022-09-17T16:42:02.572Z,97939.94
2022-09-17T16:44:48.281Z,97945.16
2022-09-17T16:47:41.574Z,97948.84
2022-09-17T16:50:27.394Z,97958.34
2022-09-17T16:53:13.014Z,97962.69
2022-09-17T16:55:58.487Z,97962.59
2022-09-17T16:58:44.759Z,97961.47
2022-09-17T17:01:32.778Z,97961.47
2022-09-17T17:04:18.013Z,97967.66
2022-09-17T17:07:03.674Z,97965.56
2022-09-17T17:09:49.587Z,97965.56
2022-09-17T17:12:36.895Z,97955.03
2022-09-17T17:15:24.393Z,97969.25
2022-09-17T17:18:09.683Z,97964.03
2022-09-17T17:20:56.330Z,97961.25
2022-09-17T17:23:44.139Z,97963.22
2022-09-17T17:26:29.823Z,97963.56
2022-09-17T17:29:17.084Z,97963.09
2022-09-17T17:32:03.763Z,97975.75
2022-09-17T17:34:50.641Z,97979.09
2022-09-17T17:37:36.435Z,97980.88
2022-09-17T17:40:22.347Z,97982.00
2022-09-17T17:43:07.762Z,97990.97
2022-09-17T17:45:52.911Z,97985.31
2022-09-17T17:48:38.590Z,97988.41
2022-09-17T17:51:25.609Z,97996.06
2022-09-17T17:54:11.041Z,98002.84
2022-09-17T17:56:56.428Z,98004.41
2022-09-17T17:59:42.035Z,98010.19
2022-09-17T18:02:27.460Z,98013.41
2022-09-17T18:05:13.218Z,98012.31
2022-09-17T18:07:58.652Z,98014.31
2022-09-17T18:10:53.847Z,98018.06
2022-09-17T18:13:40.449Z,98025.38
2022-09-17T18:16:26.556Z,98025.69
2022-09-17T18:19:12.849Z,98025.81
2022-09-17T18:21:58.417Z,98025.94
2022-09-17T18:24:43.771Z,98025.25
2022-09-17T18:27:29.195Z,98027.28
2022-09-17T18:30:14.603Z,98022.06
2022-09-17T18:33:01.095Z,98022.16
2022-09-17T18:35:47.463Z,98019.72
2022-09-17T18:38:33.217Z,98019.09
2022-09-17T18:41:19.527Z,98023.72
2022-09-17T18:44:05.178Z,98024.06
2022-09-17T18:46:51.529Z,98018.38
2022-09-17T18:49:36.900Z,98019.72
2022-09-17T18:52:22.101Z,98025.94
2022-09-17T18:55:07.918Z,98026.25
2022-09-17T18:57:53.438Z,98028.69
2022-09-17T19:00:40.782Z,98024.50
2022-09-17T19:03:26.168Z,98022.50
2022-09-17T19:06:14.191Z,98028.03
2022-09-17T19:09:02.185Z,98035.50
2022-09-17T19:11:47.704Z,98029.03
2022-09-17T19:14:33.071Z,98020.72
2022-09-17T19:17:18.277Z,98025.59
2022-09-17T19:20:04.582Z,98036.59
2022-09-17T19:22:50.052Z,98035.34
2022-09-17T19:25:36.521Z,98043.47
2022-09-17T19:28:23.085Z,98029.94
2022-09-17T19:31:11.622Z,98032.13
2022-09-17T19:33:58.496Z,98041.22
2022-09-17T19:36:43.983Z,98038.03
2022-09-17T19:39:29.252Z,98029.28
2022-09-17T19:42:14.669Z,98022.06
2022-09-17T19:44:59.718Z,98019.19
2022-09-17T19:47:44.883Z,98008.53
2022-09-17T19:50:31.761Z,98010.53
2022-09-17T19:53:16.863Z,97997.09
2022-09-17T19:56:02.389Z,98001.78
2022-09-17T19:58:48.019Z,98004.56
2022-09-17T20:01:35.090Z,98014.41
2022-09-17T20:04:20.210Z,98012.09
2022-09-17T20:07:05.500Z,98017.94
2022-09-17T20:09:50.944Z,98009.75
2022-09-17T20:12:36.197Z,98012.75
2022-09-17T20:15:21.506Z,98015.06
2022-09-17T20:18:06.788Z,98008.28
2022-09-17T20:20:51.976Z,98008.19
2022-09-17T20:23:37.469Z,98003.06
2022-09-17T20:26:23.071Z,98009.28
2022-09-17T20:29:08.505Z,98000.63
2022-09-17T20:31:53.810Z,98009.28
2022-09-17T20:34:38.952Z,98004.84
2022-09-17T20:37:47.097Z,98005.41
2022-09-17T20:40:30.450Z,98004.97
2022-09-17T20:43:15.865Z,97998.94
2022-09-17T20:46:02.115Z,97998.66
2022-09-17T20:48:47.587Z,98003.06
2022-09-17T20:51:33.969Z,97997.84
2022-09-17T20:54:19.689Z,97990.44
2022-09-17T20:57:04.850Z,97998.75
2022-09-17T20:59:53.216Z,97989.88
2022-09-17T21:02:40.870Z,97998.41
2022-09-17T21:05:26.262Z,97989.31
2022-09-17T21:08:11.727Z,97984.97
2022-09-17T21:10:57.262Z,97978.22
2022-09-17T21:13:42.570Z,97985.75
2022-09-17T21:16:28.705Z,97981.44
2022-09-17T21:19:16.186Z,97984.97
2022-09-17T21:22:01.845Z,97982.84
2022-09-17T21:24:47.151Z,97975.75
2022-09-17T21:27:32.713Z,97978.41
2022-09-17T21:30:18.337Z,97977.63
2022-09-17T21:33:03.539Z,97985.19
2022-09-17T21:35:50.722Z,97984.97
2022-09-17T21:38:36.882Z,97977.97
2022-09-17T21:41:23.370Z,97978.84
2022-09-17T21:44:09.046Z,97979.19
2022-09-17T21:46:57.586Z,97984.19
2022-09-17T21:49:44.427Z,97973.19
2022-09-17T21:52:30.067Z,97981.94
2022-09-17T21:55:15.357Z,97982.84
2022-09-17T21:58:00.524Z,97975.75
2022-09-17T22:00:45.875Z,97983.84
2022-09-17T22:03:31.083Z,97973.97
2022-09-17T22:06:23.815Z,97980.28
2022-09-17T22:09:18.096Z,97974.72
2022-09-17T22:12:06.456Z,97977.81
2022-09-17T22:14:51.969Z,97965.97
2022-09-17T22:17:37.642Z,97973.63
2022-09-17T22:20:25.516Z,97971.50
2022-09-17T22:23:11.228Z,97967.75
2022-09-17T22:26:05.042Z,97971.00
2022-09-17T22:28:51.277Z,97970.19
2022-09-17T22:31:36.771Z,97966.22
2022-09-17T22:34:23.396Z,97960.22
2022-09-17T22:37:09.022Z,97959.75
2022-09-17T22:39:54.245Z,97959.41
2022-09-17T22:42:39.580Z,97957.75
2022-09-17T22:45:24.722Z,97952.19
2022-09-17T22:48:10.052Z,97952.84
2022-09-17T22:50:55.142Z,97957.16
2022-09-17T22:53:41.430Z,97959.16
2022-09-17T22:56:28.459Z,97958.38
2022-09-17T22:59:13.892Z,97948.81
2022-09-17T23:01:59.234Z,97957.63
2022-09-17T23:04:44.506Z,97960.19
2022-09-17T23:07:29.796Z,97955.53
2022-09-17T23:10:15.295Z,97952.78
2022-09-17T23:13:00.663Z,97948.44
2022-09-17T23:15:46.325Z,97948.97
2022-09-17T23:18:32.620Z,97950.22
2022-09-17T23:21:19.414Z,97956.66
2022-09-17T23:24:04.897Z,97956.66
2022-09-17T23:26:50.543Z,97951.25
2022-09-17T23:29:35.643Z,97946.13
2022-09-17T23:32:20.904Z,97944.28
2022-09-17T23:35:06.607Z,97945.47
2022-09-17T23:37:52.233Z,97939.59
2022-09-17T23:40:38.361Z,97934.19
2022-09-17T23:43:24.066Z,97936.31
2022-09-17T23:46:09.369Z,97933.41
2022-09-17T23:48:54.836Z,97927.22
2022-09-17T23:51:40.807Z,97932.44
2022-09-17T23:54:26.275Z,97924.22
2022-09-17T23:57:11.631Z,97918.34
2022-09-17T23:59:56.821Z,97918.50
